In Rescue
 
Open Full Screen Window  High Contrast Mode
Wind Gusting 00 knots
04
January 22, 2020 5:50 PM EST
Weather Information
Wind Direction
  160 °
Wind Speed
  04 kt (5 mph)
Wind Gust
  00 kt (0 mph)
Altimeter
30.21 in
Visibility
10 SM
Temperature
-01° C
30° F
Dewpoint
-10° C
14° F
Humidity
51%
1hr Rain Fall
00.00 in.
24hr Rain Fall
00.00 in.
Sky Condition
Clear
VFR

METAR KRMY 222250Z AUTO 16004KT 10SM CLR M01/M10 A3021 RMK AO2 T10151096

FAA Disclaimer: The data displayed is for advisory purposes only and is not to be used for flight planning or operations.